sensor_id;sensor_type;location;lat;lon;timestamp;pressure;altitude;pressure_sealevel;temperature;humidity
60319;BME280;46163;52.306;5.634;2022-08-01T00:01:33;101503.97;;;21.40;58.13
60319;BME280;46163;52.306;5.634;2022-08-01T00:03:59;101503.97;;;21.40;57.75
60319;BME280;46163;52.306;5.634;2022-08-01T00:06:25;101504.25;;;21.39;57.79
60319;BME280;46163;52.306;5.634;2022-08-01T00:08:50;101511.28;;;21.40;57.78
60319;BME280;46163;52.306;5.634;2022-08-01T00:11:16;101508.84;;;21.38;57.86
60319;BME280;46163;52.306;5.634;2022-08-01T00:13:42;101504.25;;;21.39;57.73
60319;BME280;46163;52.306;5.634;2022-08-01T00:16:07;101507.75;;;21.39;57.62
60319;BME280;46163;52.306;5.634;2022-08-01T00:18:33;101512.38;;;21.39;58.12
60319;BME280;46163;52.306;5.634;2022-08-01T00:21:01;101512.63;;;21.37;58.02
60319;BME280;46163;52.306;5.634;2022-08-01T00:23:27;101505.56;;;21.36;57.92
60319;BME280;46163;52.306;5.634;2022-08-01T00:25:52;101508.84;;;21.38;58.08
60319;BME280;46163;52.306;5.634;2022-08-01T00:28:18;101501.78;;;21.37;57.85
60319;BME280;46163;52.306;5.634;2022-08-01T00:30:43;101510.97;;;21.36;57.66
60319;BME280;46163;52.306;5.634;2022-08-01T00:33:09;101503.06;;;21.30;57.62
60319;BME280;46163;52.306;5.634;2022-08-01T00:35:34;101504.72;;;21.36;57.99
60319;BME280;46163;52.306;5.634;2022-08-01T00:38:00;101509.34;;;21.35;58.16
60319;BME280;46163;52.306;5.634;2022-08-01T00:40:25;101511.22;;;21.35;58.14
60319;BME280;46163;52.306;5.634;2022-08-01T00:42:51;101512.03;;;21.35;58.10
60319;BME280;46163;52.306;5.634;2022-08-01T00:45:16;101507.69;;;21.34;58.04
60319;BME280;46163;52.306;5.634;2022-08-01T00:47:42;101509.34;;;21.35;58.04
60319;BME280;46163;52.306;5.634;2022-08-01T00:50:08;101507.69;;;21.34;57.71
60319;BME280;46163;52.306;5.634;2022-08-01T00:52:34;101502.28;;;21.34;57.82
60319;BME280;46163;52.306;5.634;2022-08-01T00:55:00;101506.88;;;21.34;57.84
60319;BME280;46163;52.306;5.634;2022-08-01T00:57:26;101510.41;;;21.34;58.13
60319;BME280;46163;52.306;5.634;2022-08-01T00:59:52;101511.50;;;21.33;57.98
60319;BME280;46163;52.306;5.634;2022-08-01T01:02:18;101509.84;;;21.32;57.75
60319;BME280;46163;52.306;5.634;2022-08-01T01:04:43;101517.72;;;21.34;58.08
60319;BME280;46163;52.306;5.634;2022-08-01T01:07:16;101522.31;;;21.33;57.80
60319;BME280;46163;52.306;5.634;2022-08-01T01:09:58;101512.56;;;21.32;57.93
60319;BME280;46163;52.306;5.634;2022-08-01T01:15:42;101510.94;;;21.31;57.90
60319;BME280;46163;52.306;5.634;2022-08-01T01:18:14;101520.13;;;21.30;58.18
60319;BME280;46163;52.306;5.634;2022-08-01T01:20:43;101523.66;;;21.31;58.02
60319;BME280;46163;52.306;5.634;2022-08-01T01:23:24;101528.25;;;21.30;58.23
60319;BME280;46163;52.306;5.634;2022-08-01T01:26:04;101522.84;;;21.30;58.13
60319;BME280;46163;52.306;5.634;2022-08-01T01:31:23;101516.59;;;21.30;57.86
60319;BME280;46163;52.306;5.634;2022-08-01T01:33:51;101509.56;;;21.29;58.31
60319;BME280;46163;52.306;5.634;2022-08-01T01:36:19;101526.63;;;21.29;58.20
60319;BME280;46163;52.306;5.634;2022-08-01T01:38:47;101518.50;;;21.29;58.20
60319;BME280;46163;52.306;5.634;2022-08-01T01:41:15;101522.25;;;21.28;58.32
60319;BME280;46163;52.306;5.634;2022-08-01T01:43:43;101518.50;;;21.29;58.20
60319;BME280;46163;52.306;5.634;2022-08-01T01:46:29;101514.13;;;21.28;58.00
60319;BME280;46163;52.306;5.634;2022-08-01T01:48:57;101522.25;;;21.28;57.92
60319;BME280;46163;52.306;5.634;2022-08-01T01:51:25;101521.44;;;21.28;58.21
60319;BME280;46163;52.306;5.634;2022-08-01T01:53:53;101518.72;;;21.28;58.18
60319;BME280;46163;52.306;5.634;2022-08-01T01:56:20;101523.31;;;21.27;58.01
60319;BME280;46163;52.306;5.634;2022-08-01T01:58:53;101510.28;;;21.24;58.26
60319;BME280;46163;52.306;5.634;2022-08-01T02:01:21;101520.03;;;21.25;57.89
60319;BME280;46163;52.306;5.634;2022-08-01T02:03:49;101517.09;;;21.27;57.99
60319;BME280;46163;52.306;5.634;2022-08-01T02:06:16;101513.53;;;21.26;58.33
60319;BME280;46163;52.306;5.634;2022-08-01T02:08:42;101520.84;;;21.26;58.37
60319;BME280;46163;52.306;5.634;2022-08-01T02:11:10;101524.63;;;21.25;58.15
60319;BME280;46163;52.306;5.634;2022-08-01T02:13:53;101510.47;;;21.17;58.31
60319;BME280;46163;52.306;5.634;2022-08-01T02:16:23;101523.00;;;21.24;58.38
60319;BME280;46163;52.306;5.634;2022-08-01T02:18:50;101524.63;;;21.25;58.15
60319;BME280;46163;52.306;5.634;2022-08-01T02:21:24;101503.44;;;21.16;58.11
60319;BME280;46163;52.306;5.634;2022-08-01T02:23:52;101512.44;;;21.22;58.01
60319;BME280;46163;52.306;5.634;2022-08-01T02:26:22;101512.19;;;21.24;58.45
60319;BME280;46163;52.306;5.634;2022-08-01T02:28:56;101508.66;;;21.23;57.98
60319;BME280;46163;52.306;5.634;2022-08-01T02:31:22;101522.19;;;21.23;58.40
60319;BME280;46163;52.306;5.634;2022-08-01T02:34:09;101517.84;;;21.22;58.06
60319;BME280;46163;52.306;5.634;2022-08-01T02:36:36;101516.22;;;21.21;57.93
60319;BME280;46163;52.306;5.634;2022-08-01T02:39:08;101517.53;;;21.18;58.03
60319;BME280;46163;52.306;5.634;2022-08-01T02:41:39;101524.34;;;21.21;58.29
60319;BME280;46163;52.306;5.634;2022-08-01T02:44:08;101526.78;;;21.23;58.29
60319;BME280;46163;52.306;5.634;2022-08-01T02:46:49;101531.38;;;21.22;58.42
60319;BME280;46163;52.306;5.634;2022-08-01T02:49:17;101527.03;;;21.21;58.31
60319;BME280;46163;52.306;5.634;2022-08-01T02:51:47;101524.34;;;21.21;58.08
60319;BME280;46163;52.306;5.634;2022-08-01T02:54:15;101525.16;;;21.22;58.24
60319;BME280;46163;52.306;5.634;2022-08-01T02:56:43;101523.75;;;21.19;58.49
60319;BME280;46163;52.306;5.634;2022-08-01T02:59:13;101528.13;;;21.20;58.39
60319;BME280;46163;52.306;5.634;2022-08-01T03:01:42;101521.03;;;21.19;58.10
60319;BME280;46163;52.306;5.634;2022-08-01T03:04:10;101527.28;;;21.20;58.14
60319;BME280;46163;52.306;5.634;2022-08-01T03:06:37;101531.66;;;21.21;58.57
60319;BME280;46163;52.306;5.634;2022-08-01T03:09:03;101525.09;;;21.16;58.26
60319;BME280;46163;52.306;5.634;2022-08-01T03:11:31;101517.50;;;21.13;58.12
60319;BME280;46163;52.306;5.634;2022-08-01T03:14:02;101523.75;;;21.19;58.08
60319;BME280;46163;52.306;5.634;2022-08-01T03:16:31;101529.16;;;21.19;58.14
60319;BME280;46163;52.306;5.634;2022-08-01T03:18:59;101517.22;;;21.15;58.23
60319;BME280;46163;52.306;5.634;2022-08-01T03:21:27;101516.72;;;21.18;58.52
60319;BME280;46163;52.306;5.634;2022-08-01T03:23:55;101519.41;;;21.18;58.16
60319;BME280;46163;52.306;5.634;2022-08-01T03:26:31;101524.81;;;21.18;58.36
60319;BME280;46163;52.306;5.634;2022-08-01T03:29:01;101524.81;;;21.18;58.21
60319;BME280;46163;52.306;5.634;2022-08-01T03:31:32;101517.50;;;21.13;58.05
60319;BME280;46163;52.306;5.634;2022-08-01T03:33:59;101523.19;;;21.17;58.48
60319;BME280;46163;52.306;5.634;2022-08-01T03:36:25;101518.31;;;21.14;58.42
60319;BME280;46163;52.306;5.634;2022-08-01T03:38:57;101524.00;;;21.17;58.59
60319;BME280;46163;52.306;5.634;2022-08-01T03:41:27;101524.53;;;21.14;58.16
60319;BME280;46163;52.306;5.634;2022-08-01T03:44:01;101521.00;;;21.14;58.38
60319;BME280;46163;52.306;5.634;2022-08-01T03:46:35;101525.34;;;21.15;58.50
60319;BME280;46163;52.306;5.634;2022-08-01T03:49:08;101536.19;;;21.15;58.29
60319;BME280;46163;52.306;5.634;2022-08-01T03:51:37;101533.72;;;21.13;58.24
60319;BME280;46163;52.306;5.634;2022-08-01T03:54:03;101527.50;;;21.13;58.28
60319;BME280;46163;52.306;5.634;2022-08-01T03:56:30;101538.81;;;21.10;58.54
60319;BME280;46163;52.306;5.634;2022-08-01T03:58:58;101548.34;;;21.12;58.61
60319;BME280;46163;52.306;5.634;2022-08-01T04:01:24;101551.84;;;21.13;58.50
60319;BME280;46163;52.306;5.634;2022-08-01T04:03:51;101559.97;;;21.13;58.19
60319;BME280;46163;52.306;5.634;2022-08-01T04:06:16;101546.94;;;21.10;58.32
60319;BME280;46163;52.306;5.634;2022-08-01T04:08:42;101558.34;;;21.12;58.19
60319;BME280;46163;52.306;5.634;2022-08-01T04:11:09;101551.03;;;21.12;58.51
60319;BME280;46163;52.306;5.634;2022-08-01T04:13:35;101555.06;;;21.10;58.33
60319;BME280;46163;52.306;5.634;2022-08-01T04:16:00;101552.13;;;21.11;58.62
60319;BME280;46163;52.306;5.634;2022-08-01T04:18:26;101545.84;;;21.11;58.39
60319;BME280;46163;52.306;5.634;2022-08-01T04:20:52;101561.28;;;21.10;58.37
60319;BME280;46163;52.306;5.634;2022-08-01T04:23:20;101552.03;;;21.06;58.55
60319;BME280;46163;52.306;5.634;2022-08-01T04:25:50;101560.47;;;21.10;58.42
60319;BME280;46163;52.306;5.634;2022-08-01T04:28:16;101564.75;;;21.06;58.56
60319;BME280;46163;52.306;5.634;2022-08-01T04:30:44;101571.53;;;21.08;58.38
60319;BME280;46163;52.306;5.634;2022-08-01T04:33:13;101559.34;;;21.06;58.51
60319;BME280;46163;52.306;5.634;2022-08-01T04:35:43;101562.63;;;21.08;58.65
60319;BME280;46163;52.306;5.634;2022-08-01T04:38:12;101564.25;;;21.09;58.77
60319;BME280;46163;52.306;5.634;2022-08-01T04:40:40;101565.31;;;21.08;58.66
60319;BME280;46163;52.306;5.634;2022-08-01T04:43:07;101576.16;;;21.08;58.39
60319;BME280;46163;52.306;5.634;2022-08-01T04:45:33;101571.81;;;21.07;58.68
60319;BME280;46163;52.306;5.634;2022-08-01T04:47:59;101578.03;;;21.07;58.34
60319;BME280;46163;52.306;5.634;2022-08-01T04:50:26;101588.03;;;21.07;58.63
60319;BME280;46163;52.306;5.634;2022-08-01T04:52:52;101582.63;;;21.07;58.61
60319;BME280;46163;52.306;5.634;2022-08-01T04:55:18;101585.34;;;21.07;58.56
60319;BME280;46163;52.306;5.634;2022-08-01T04:57:45;101587.78;;;21.08;58.65
60319;BME280;46163;52.306;5.634;2022-08-01T05:00:12;101589.13;;;21.06;58.66
60319;BME280;46163;52.306;5.634;2022-08-01T05:02:38;101585.06;;;21.08;58.35
60319;BME280;46163;52.306;5.634;2022-08-01T05:05:04;101583.69;;;21.06;58.49
60319;BME280;46163;52.306;5.634;2022-08-01T05:07:32;101584.25;;;21.08;58.20
60319;BME280;46163;52.306;5.634;2022-08-01T05:09:58;101588.59;;;21.09;58.32
60319;BME280;46163;52.306;5.634;2022-08-01T05:12:24;101591.31;;;21.09;58.61
60319;BME280;46163;52.306;5.634;2022-08-01T05:14:49;101597.53;;;21.09;58.46
60319;BME280;46163;52.306;5.634;2022-08-01T05:17:16;101592.38;;;21.08;58.27
60319;BME280;46163;52.306;5.634;2022-08-01T05:19:41;101595.09;;;21.08;58.49
60319;BME280;46163;52.306;5.634;2022-08-01T05:22:08;101595.91;;;21.08;58.47
60319;BME280;46163;52.306;5.634;2022-08-01T05:24:36;101591.00;;;21.05;58.38
60319;BME280;46163;52.306;5.634;2022-08-01T05:27:03;101603.22;;;21.08;58.57
60319;BME280;46163;52.306;5.634;2022-08-01T05:29:29;101604.84;;;21.09;57.81
60319;BME280;46163;52.306;5.634;2022-08-01T05:31:55;101602.13;;;21.09;58.58
60319;BME280;46163;52.306;5.634;2022-08-01T05:34:22;101597.22;;;21.06;58.27
60319;BME280;46163;52.306;5.634;2022-08-01T05:36:48;101600.25;;;21.09;58.26
60319;BME280;46163;52.306;5.634;2022-08-01T05:39:14;101609.19;;;21.10;58.46
60319;BME280;46163;52.306;5.634;2022-08-01T05:41:40;101608.34;;;21.09;58.24
60319;BME280;46163;52.306;5.634;2022-08-01T05:44:06;101605.91;;;21.08;58.31
60319;BME280;46163;52.306;5.634;2022-08-01T05:46:32;101610.81;;;21.11;58.23
60319;BME280;46163;52.306;5.634;2022-08-01T05:48:59;101606.25;;;21.11;58.05
60319;BME280;46163;52.306;5.634;2022-08-01T05:51:25;101619.53;;;21.13;58.59
60319;BME280;46163;52.306;5.634;2022-08-01T05:53:51;101607.88;;;21.12;58.28
60319;BME280;46163;52.306;5.634;2022-08-01T05:56:17;101617.63;;;21.13;58.23
60319;BME280;46163;52.306;5.634;2022-08-01T05:58:43;101614.41;;;21.16;58.28
60319;BME280;46163;52.306;5.634;2022-08-01T06:01:08;101617.94;;;21.17;58.27
60319;BME280;46163;52.306;5.634;2022-08-01T06:03:34;101615.78;;;21.19;58.06
60319;BME280;46163;52.306;5.634;2022-08-01T06:06:00;101610.63;;;21.17;58.35
60319;BME280;46163;52.306;5.634;2022-08-01T06:08:26;101618.50;;;21.19;58.07
60319;BME280;46163;52.306;5.634;2022-08-01T06:10:51;101621.78;;;21.21;57.94
60319;BME280;46163;52.306;5.634;2022-08-01T06:13:17;101619.09;;;21.21;58.27
60319;BME280;46163;52.306;5.634;2022-08-01T06:15:44;101628.03;;;21.22;58.18
60319;BME280;46163;52.306;5.634;2022-08-01T06:18:10;101625.88;;;21.24;58.05
60319;BME280;46163;52.306;5.634;2022-08-01T06:20:35;101627.50;;;21.25;58.21
60319;BME280;46163;52.306;5.634;2022-08-01T06:23:01;101633.50;;;21.27;58.16
60319;BME280;46163;52.306;5.634;2022-08-01T06:25:27;101631.38;;;21.29;58.18
60319;BME280;46163;52.306;5.634;2022-08-01T06:27:52;101634.31;;;21.27;58.02
60319;BME280;46163;52.306;5.634;2022-08-01T06:30:20;101641.69;;;21.32;58.12
60319;BME280;46163;52.306;5.634;2022-08-01T06:32:45;101638.19;;;21.31;58.11
60319;BME280;46163;52.306;5.634;2022-08-01T06:35:11;101642.78;;;21.31;58.07
60319;BME280;46163;52.306;5.634;2022-08-01T06:37:36;101638.44;;;21.30;58.03
60319;BME280;46163;52.306;5.634;2022-08-01T06:40:07;101647.94;;;21.32;57.98
60319;BME280;46163;52.306;5.634;2022-08-01T06:42:33;101639.00;;;21.32;57.71
60319;BME280;46163;52.306;5.634;2022-08-01T06:45:12;101649.00;;;21.31;58.07
60319;BME280;46163;52.306;5.634;2022-08-01T06:47:39;101653.59;;;21.31;57.78
60319;BME280;46163;52.306;5.634;2022-08-01T06:50:06;101655.50;;;21.30;57.70
60319;BME280;46163;52.306;5.634;2022-08-01T06:52:33;101654.69;;;21.30;57.74
60319;BME280;46163;52.306;5.634;2022-08-01T06:54:59;101638.50;;;21.18;57.62
60319;BME280;46163;52.306;5.634;2022-08-01T06:57:25;101661.72;;;21.31;57.65
60319;BME280;46163;52.306;5.634;2022-08-01T06:59:51;101666.88;;;21.32;57.70
60319;BME280;46163;52.306;5.634;2022-08-01T07:02:16;101661.47;;;21.32;57.63
60319;BME280;46163;52.306;5.634;2022-08-01T07:04:42;101669.59;;;21.32;57.75
60319;BME280;46163;52.306;5.634;2022-08-01T07:07:07;101666.88;;;21.32;57.92
60319;BME280;46163;52.306;5.634;2022-08-01T07:09:33;101669.59;;;21.32;57.64
60319;BME280;46163;52.306;5.634;2022-08-01T07:11:59;101673.94;;;21.33;57.92
60319;BME280;46163;52.306;5.634;2022-08-01T07:14:24;101669.34;;;21.34;57.77
60319;BME280;46163;52.306;5.634;2022-08-01T07:16:50;101670.41;;;21.33;58.08
60319;BME280;46163;52.306;5.634;2022-08-01T07:19:16;101670.41;;;21.33;57.94
60319;BME280;46163;52.306;5.634;2022-08-01T07:21:41;101679.34;;;21.33;57.78
60319;BME280;46163;52.306;5.634;2022-08-01T07:24:09;101680.97;;;21.34;57.63
60319;BME280;46163;52.306;5.634;2022-08-01T07:26:35;101685.59;;;21.34;58.03
60319;BME280;46163;52.306;5.634;2022-08-01T07:29:01;101690.19;;;21.33;57.83
60319;BME280;46163;52.306;5.634;2022-08-01T07:31:27;101693.44;;;21.35;57.94
60319;BME280;46163;52.306;5.634;2022-08-01T07:33:53;101691.81;;;21.34;57.62
60319;BME280;46163;52.306;5.634;2022-08-01T07:36:18;101693.44;;;21.35;57.93
60319;BME280;46163;52.306;5.634;2022-08-01T07:38:45;101683.13;;;21.32;57.82
60319;BME280;46163;52.306;5.634;2022-08-01T07:41:11;101694.25;;;21.36;57.58
60319;BME280;46163;52.306;5.634;2022-08-01T07:43:37;101695.09;;;21.36;57.79
60319;BME280;46163;52.306;5.634;2022-08-01T07:46:03;101697.56;;;21.38;57.50
60319;BME280;46163;52.306;5.634;2022-08-01T07:48:29;101697.56;;;21.38;57.85
60319;BME280;46163;52.306;5.634;2022-08-01T07:50:54;101711.66;;;21.40;57.76
60319;BME280;46163;52.306;5.634;2022-08-01T07:53:20;101711.97;;;21.43;57.75
60319;BME280;46163;52.306;5.634;2022-08-01T07:55:46;101720.97;;;21.49;57.40
60319;BME280;46163;52.306;5.634;2022-08-01T07:58:11;101719.34;;;21.48;57.44
60319;BME280;46163;52.306;5.634;2022-08-01T08:00:37;101723.44;;;21.51;57.31
60319;BME280;46163;52.306;5.634;2022-08-01T08:03:03;101722.88;;;21.49;57.16
60319;BME280;46163;52.306;5.634;2022-08-01T08:05:29;101732.13;;;21.53;57.32
60319;BME280;46163;52.306;5.634;2022-08-01T08:07:54;101728.34;;;21.54;57.59
60319;BME280;46163;52.306;5.634;2022-08-01T08:10:20;101731.03;;;21.54;57.36
60319;BME280;46163;52.306;5.634;2022-08-01T08:12:45;101722.91;;;21.54;57.34
60319;BME280;46163;52.306;5.634;2022-08-01T08:15:12;101724.31;;;21.56;56.81
60319;BME280;46163;52.306;5.634;2022-08-01T08:17:38;101731.63;;;21.56;57.11
60319;BME280;46163;52.306;5.634;2022-08-01T08:20:06;101726.44;;;21.54;57.04
60319;BME280;46163;52.306;5.634;2022-08-01T08:22:31;101732.19;;;21.58;57.29
60319;BME280;46163;52.306;5.634;2022-08-01T08:24:57;101734.66;;;21.59;57.32
60319;BME280;46163;52.306;5.634;2022-08-01T08:27:22;101733.81;;;21.59;57.11
60319;BME280;46163;52.306;5.634;2022-08-01T08:29:48;101730.47;;;21.52;56.84
60319;BME280;46163;52.306;5.634;2022-08-01T08:32:13;101710.66;;;21.46;57.32
60319;BME280;46163;52.306;5.634;2022-08-01T08:34:39;101739.31;;;21.64;57.14
60319;BME280;46163;52.306;5.634;2022-08-01T08:37:04;101747.19;;;21.65;57.10
60319;BME280;46163;52.306;5.634;2022-08-01T08:39:30;101746.94;;;21.67;56.72
60319;BME280;46163;52.306;5.634;2022-08-01T08:42:00;101748.81;;;21.66;56.86
60319;BME280;46163;52.306;5.634;2022-08-01T08:44:27;101744.22;;;21.67;56.69
60319;BME280;46163;52.306;5.634;2022-08-01T08:46:53;101754.53;;;21.70;56.73
60319;BME280;46163;52.306;5.634;2022-08-01T08:49:26;101742.06;;;21.69;56.80
60319;BME280;46163;52.306;5.634;2022-08-01T08:51:53;101757.00;;;21.71;56.50
60319;BME280;46163;52.306;5.634;2022-08-01T08:54:23;101748.63;;;21.73;56.57
60319;BME280;46163;52.306;5.634;2022-08-01T08:56:51;101751.09;;;21.75;56.63
60319;BME280;46163;52.306;5.634;2022-08-01T08:59:17;101751.09;;;21.75;56.81
60319;BME280;46163;52.306;5.634;2022-08-01T09:01:43;101752.22;;;21.79;56.59
60319;BME280;46163;52.306;5.634;2022-08-01T09:04:09;101754.09;;;21.78;56.84
60319;BME280;46163;52.306;5.634;2022-08-01T09:06:36;101747.94;;;21.83;56.76
60319;BME280;46163;52.306;5.634;2022-08-01T09:09:02;101756.63;;;21.85;56.59
60319;BME280;46163;52.306;5.634;2022-08-01T09:11:28;101761.22;;;21.84;56.30
60319;BME280;46163;52.306;5.634;2022-08-01T09:14:16;101764.50;;;21.86;56.54
60319;BME280;46163;52.306;5.634;2022-08-01T09:17:16;101765.06;;;21.88;56.51
60319;BME280;46163;52.306;5.634;2022-08-01T09:19:47;101766.47;;;21.91;56.48
60319;BME280;46163;52.306;5.634;2022-08-01T09:22:17;101774.06;;;21.94;56.09
60319;BME280;46163;52.306;5.634;2022-08-01T09:25:09;101770.53;;;21.93;56.32
60319;BME280;46163;52.306;5.634;2022-08-01T09:27:36;101761.03;;;21.91;56.37
60319;BME280;46163;52.306;5.634;2022-08-01T09:30:16;101774.63;;;21.96;56.36
60319;BME280;46163;52.306;5.634;2022-08-01T09:32:57;101771.44;;;21.99;56.39
60319;BME280;46163;52.306;5.634;2022-08-01T09:35:35;101773.63;;;22.02;56.21
60319;BME280;46163;52.306;5.634;2022-08-01T09:38:30;101767.94;;;22.04;55.76
60319;BME280;46163;52.306;5.634;2022-08-01T09:40:57;101773.09;;;22.05;55.91
60319;BME280;46163;52.306;5.634;2022-08-01T09:43:24;101771.81;;;22.08;55.72
60319;BME280;46163;52.306;5.634;2022-08-01T09:45:50;101779.13;;;22.07;55.95
60319;BME280;46163;52.306;5.634;2022-08-01T09:48:16;101779.97;;;22.08;55.84
60319;BME280;46163;52.306;5.634;2022-08-01T09:50:43;101788.09;;;22.08;55.67
60319;BME280;46163;52.306;5.634;2022-08-01T09:53:10;101788.91;;;22.08;55.98
60319;BME280;46163;52.306;5.634;2022-08-01T09:55:37;101789.72;;;22.09;55.82
60319;BME280;46163;52.306;5.634;2022-08-01T09:58:02;101789.97;;;22.07;55.94
60319;BME280;46163;52.306;5.634;2022-08-01T10:00:30;101791.34;;;22.10;55.89
60319;BME280;46163;52.306;5.634;2022-08-01T10:02:56;101802.19;;;22.10;55.87
60319;BME280;46163;52.306;5.634;2022-08-01T10:05:32;101788.94;;;22.13;55.74
60319;BME280;46163;52.306;5.634;2022-08-01T10:08:01;101788.47;;;22.16;55.50
60319;BME280;46163;52.306;5.634;2022-08-01T10:10:28;101784.66;;;22.17;55.65
60319;BME280;46163;52.306;5.634;2022-08-01T10:12:55;101790.38;;;22.21;55.83
60319;BME280;46163;52.306;5.634;2022-08-01T10:15:21;101798.00;;;22.24;55.31
60319;BME280;46163;52.306;5.634;2022-08-01T10:18:01;101787.75;;;22.26;55.30
60319;BME280;46163;52.306;5.634;2022-08-01T10:20:32;101782.25;;;22.21;55.46
60319;BME280;46163;52.306;5.634;2022-08-01T10:23:00;101793.19;;;22.31;55.29
60319;BME280;46163;52.306;5.634;2022-08-01T10:25:28;101796.22;;;22.35;55.21
60319;BME280;46163;52.306;5.634;2022-08-01T10:27:54;101795.41;;;22.34;55.23
60319;BME280;46163;52.306;5.634;2022-08-01T10:30:22;101797.09;;;22.40;55.44
60319;BME280;46163;52.306;5.634;2022-08-01T10:32:49;101805.47;;;22.39;54.94
60319;BME280;46163;52.306;5.634;2022-08-01T10:35:15;101805.22;;;22.40;55.52
60319;BME280;46163;52.306;5.634;2022-08-01T10:37:45;101802.50;;;22.40;55.29
60319;BME280;46163;52.306;5.634;2022-08-01T10:40:14;101798.72;;;22.41;55.25
60319;BME280;46163;52.306;5.634;2022-08-01T10:42:45;101803.31;;;22.41;54.97
60319;BME280;46163;52.306;5.634;2022-08-01T10:45:13;101798.22;;;22.44;55.36
60319;BME280;46163;52.306;5.634;2022-08-01T10:47:44;101799.84;;;22.45;54.79
60319;BME280;46163;52.306;5.634;2022-08-01T10:50:32;101805.28;;;22.45;55.05
60319;BME280;46163;52.306;5.634;2022-08-01T10:58:29;101802.88;;;22.49;54.86
60319;BME280;46163;52.306;5.634;2022-08-01T11:01:26;101797.22;;;22.50;54.80
60319;BME280;46163;52.306;5.634;2022-08-01T11:04:10;101802.63;;;22.50;54.92
60319;BME280;46163;52.306;5.634;2022-08-01T11:06:40;101793.41;;;22.51;54.84
60319;BME280;46163;52.306;5.634;2022-08-01T11:12:08;101804.00;;;22.53;54.90
60319;BME280;46163;52.306;5.634;2022-08-01T11:17:45;101807.53;;;22.53;54.58
60319;BME280;46163;52.306;5.634;2022-08-01T11:20:14;101800.22;;;22.54;55.02
60319;BME280;46163;52.306;5.634;2022-08-01T11:25:24;101805.13;;;22.57;54.80
60319;BME280;46163;52.306;5.634;2022-08-01T11:31:24;101805.44;;;22.61;54.53
60319;BME280;46163;52.306;5.634;2022-08-01T11:38:47;101824.44;;;22.66;54.38
60319;BME280;46163;52.306;5.634;2022-08-01T11:41:17;101819.84;;;22.66;54.42
60319;BME280;46163;52.306;5.634;2022-08-01T11:46:50;101809.81;;;22.67;54.81
60319;BME280;46163;52.306;5.634;2022-08-01T11:52:24;101817.72;;;22.68;54.69
60319;BME280;46163;52.306;5.634;2022-08-01T11:54:53;101819.63;;;22.68;54.71
60319;BME280;46163;52.306;5.634;2022-08-01T11:59:49;101807.69;;;22.69;54.24
60319;BME280;46163;52.306;5.634;2022-08-01T12:07:19;101816.94;;;22.73;54.44
60319;BME280;46163;52.306;5.634;2022-08-01T12:09:45;101815.03;;;22.73;54.66
60319;BME280;46163;52.306;5.634;2022-08-01T12:12:14;101819.13;;;22.76;54.13
60319;BME280;46163;52.306;5.634;2022-08-01T12:14:42;101825.13;;;22.78;54.33
60319;BME280;46163;52.306;5.634;2022-08-01T12:17:08;101820.81;;;22.82;54.27
60319;BME280;46163;52.306;5.634;2022-08-01T12:19:33;101827.06;;;22.82;54.19
60319;BME280;46163;52.306;5.634;2022-08-01T12:22:13;101827.41;;;22.86;54.73
60319;BME280;46163;52.306;5.634;2022-08-01T12:24:41;101824.97;;;22.90;53.76
60319;BME280;46163;52.306;5.634;2022-08-01T12:27:09;101826.59;;;22.91;53.90
60319;BME280;46163;52.306;5.634;2022-08-01T12:29:37;101826.59;;;22.91;54.36
60319;BME280;46163;52.306;5.634;2022-08-01T12:32:03;101836.38;;;22.92;54.18
60319;BME280;46163;52.306;5.634;2022-08-01T12:34:29;101828.56;;;22.95;54.14
60319;BME280;46163;52.306;5.634;2022-08-01T12:36:59;101831.28;;;22.95;53.93
60319;BME280;46163;52.306;5.634;2022-08-01T12:39:33;101831.28;;;22.95;54.20
60319;BME280;46163;52.306;5.634;2022-08-01T12:41:59;101830.75;;;22.98;53.73
60319;BME280;46163;52.306;5.634;2022-08-01T12:44:26;101822.34;;;23.00;53.95
60319;BME280;46163;52.306;5.634;2022-08-01T12:46:53;101833.19;;;23.00;53.87
60319;BME280;46163;52.306;5.634;2022-08-01T12:49:19;101832.94;;;23.01;53.66
60319;BME280;46163;52.306;5.634;2022-08-01T12:51:44;101823.72;;;23.02;53.85
60319;BME280;46163;52.306;5.634;2022-08-01T12:54:10;101827.25;;;23.03;53.57
60319;BME280;46163;52.306;5.634;2022-08-01T12:56:35;101825.09;;;23.05;53.78
60319;BME280;46163;52.306;5.634;2022-08-01T12:59:01;101829.72;;;23.09;53.73
60319;BME280;46163;52.306;5.634;2022-08-01T13:01:28;101824.31;;;23.09;53.84
60319;BME280;46163;52.306;5.634;2022-08-01T13:03:59;101818.63;;;23.11;53.62
60319;BME280;46163;52.306;5.634;2022-08-01T13:06:28;101819.75;;;23.15;53.67
60319;BME280;46163;52.306;5.634;2022-08-01T13:08:54;101821.09;;;23.18;53.25
60319;BME280;46163;52.306;5.634;2022-08-01T13:11:21;101822.50;;;23.20;53.33
60319;BME280;46163;52.306;5.634;2022-08-01T13:13:51;101814.63;;;23.24;53.16
60319;BME280;46163;52.306;5.634;2022-08-01T13:19:17;101812.53;;;23.31;53.08
60319;BME280;46163;52.306;5.634;2022-08-01T13:21:56;101810.34;;;23.33;53.07
60319;BME280;46163;52.306;5.634;2022-08-01T13:24:26;101819.03;;;23.35;53.00
60319;BME280;46163;52.306;5.634;2022-08-01T13:26:55;101822.06;;;23.38;52.99
60319;BME280;46163;52.306;5.634;2022-08-01T13:29:36;101820.19;;;23.39;52.96
60319;BME280;46163;52.306;5.634;2022-08-01T13:32:16;101818.81;;;23.41;52.80
60319;BME280;46163;52.306;5.634;2022-08-01T13:34:42;101822.09;;;23.44;52.98
60319;BME280;46163;52.306;5.634;2022-08-01T13:37:08;101822.66;;;23.46;52.93
60319;BME280;46163;52.306;5.634;2022-08-01T13:39:34;101821.84;;;23.50;52.67
60319;BME280;46163;52.306;5.634;2022-08-01T13:42:15;101815.88;;;23.53;52.68